createdAt,value
2022-09-27T00:01:00.909Z,15.40
2022-09-27T00:03:32.217Z,15.42
2022-09-27T00:06:15.829Z,15.44
2022-09-27T00:08:43.710Z,15.45
2022-09-27T00:11:34.636Z,15.51
2022-09-27T00:14:02.721Z,15.55
2022-09-27T00:16:32.321Z,15.50
2022-09-27T00:19:06.317Z,15.48
2022-09-27T00:21:34.136Z,15.57
2022-09-27T00:24:01.758Z,15.71
2022-09-27T00:26:29.911Z,15.82
2022-09-27T00:28:57.867Z,15.85
2022-09-27T00:31:29.814Z,15.93
2022-09-27T00:34:02.202Z,15.96
2022-09-27T00:36:30.561Z,15.89
2022-09-27T00:39:01.758Z,15.99
2022-09-27T00:41:32.343Z,15.97
2022-09-27T00:44:24.631Z,16.04
2022-09-27T00:47:01.844Z,16.05
2022-09-27T00:49:38.050Z,16.10
2022-09-27T00:52:10.200Z,16.10
2022-09-27T00:54:41.004Z,16.18
2022-09-27T00:57:09.175Z,16.04
2022-09-27T00:59:43.708Z,16.10
2022-09-27T01:02:11.770Z,15.95
2022-09-27T01:04:42.967Z,16.00
2022-09-27T01:07:10.670Z,16.12
2022-09-27T01:09:38.148Z,16.04
2022-09-27T01:12:23.954Z,16.09
2022-09-27T01:14:54.242Z,16.11
2022-09-27T01:17:30.107Z,16.12
2022-09-27T01:20:25.421Z,16.07
2022-09-27T01:23:23.288Z,16.06
2022-09-27T01:26:09.558Z,16.16
2022-09-27T01:28:40.211Z,16.09
2022-09-27T01:31:23.127Z,16.13
2022-09-27T01:34:09.843Z,16.11
2022-09-27T01:36:43.347Z,16.09
2022-09-27T01:39:34.420Z,16.06
2022-09-27T01:42:30.541Z,16.06
2022-09-27T01:45:23.026Z,15.95
2022-09-27T01:48:22.175Z,15.93
2022-09-27T01:50:57.144Z,15.95
2022-09-27T01:53:33.332Z,15.96
2022-09-27T01:56:46.258Z,15.86
2022-09-27T01:59:29.793Z,15.94
2022-09-27T02:02:18.180Z,16.00
2022-09-27T02:05:11.715Z,16.03
2022-09-27T02:07:53.468Z,16.14
2022-09-27T02:10:29.214Z,16.08
2022-09-27T02:13:47.113Z,16.05
2022-09-27T02:16:53.069Z,15.91
2022-09-27T02:19:53.340Z,15.94
2022-09-27T02:22:35.649Z,16.00
2022-09-27T02:25:24.402Z,15.95
2022-09-27T02:28:12.399Z,15.92
2022-09-27T02:30:41.879Z,15.81
2022-09-27T02:33:43.877Z,15.83
2022-09-27T02:36:11.621Z,15.89
2022-09-27T02:38:40.005Z,15.90
2022-09-27T02:41:15.807Z,15.94
2022-09-27T02:43:47.239Z,15.90
2022-09-27T02:46:25.973Z,15.95
2022-09-27T02:49:27.492Z,16.00
2022-09-27T02:52:12.993Z,15.89
2022-09-27T02:54:52.448Z,15.83
2022-09-27T02:57:48.831Z,15.84
2022-09-27T03:00:48.183Z,15.66
2022-09-27T03:03:58.083Z,15.36
2022-09-27T03:06:25.935Z,15.46
2022-09-27T03:08:54.343Z,15.55
2022-09-27T03:11:21.687Z,15.61
2022-09-27T03:14:07.345Z,15.71
2022-09-27T03:16:38.058Z,15.68
2022-09-27T03:19:25.904Z,15.81
2022-09-27T03:22:19.303Z,15.62
2022-09-27T03:24:46.932Z,15.69
2022-09-27T03:27:14.366Z,15.59
2022-09-27T03:29:41.905Z,15.51
2022-09-27T03:32:10.797Z,15.33
2022-09-27T03:34:58.464Z,15.22
2022-09-27T03:37:29.302Z,15.19
2022-09-27T03:39:56.688Z,15.24
2022-09-27T03:42:24.386Z,15.26
2022-09-27T03:44:52.762Z,15.13
2022-09-27T03:47:20.159Z,15.16
2022-09-27T03:49:48.145Z,15.17
2022-09-27T03:52:16.902Z,15.21
2022-09-27T03:54:45.481Z,15.05
2022-09-27T03:57:12.965Z,15.16
2022-09-27T03:59:40.989Z,15.16
2022-09-27T04:02:27.951Z,15.11
2022-09-27T04:05:28.976Z,15.17
2022-09-27T04:08:23.156Z,15.16
2022-09-27T04:10:51.939Z,15.26
2022-09-27T04:13:19.531Z,15.39
2022-09-27T04:15:54.218Z,15.60
2022-09-27T04:18:39.894Z,15.57
2022-09-27T04:21:13.151Z,15.53
2022-09-27T04:23:46.999Z,15.41
2022-09-27T04:26:17.477Z,15.39
2022-09-27T04:28:55.063Z,15.33
2022-09-27T04:31:23.333Z,15.26
2022-09-27T04:33:54.825Z,15.63
2022-09-27T04:36:28.021Z,15.48
2022-09-27T04:39:10.956Z,15.31
2022-09-27T04:41:41.458Z,15.28
2022-09-27T04:44:08.843Z,15.24
2022-09-27T04:46:36.475Z,15.17
2022-09-27T04:49:03.938Z,15.12
2022-09-27T04:51:33.700Z,15.17
2022-09-27T04:54:01.895Z,15.09
2022-09-27T04:56:35.258Z,15.04
2022-09-27T04:59:09.739Z,14.95
2022-09-27T05:01:39.281Z,15.02
2022-09-27T05:04:18.118Z,15.03
2022-09-27T05:06:56.313Z,15.03
2022-09-27T05:09:31.933Z,15.02
2022-09-27T05:11:59.803Z,15.03
2022-09-27T05:14:33.345Z,15.11
2022-09-27T05:17:12.629Z,15.20
2022-09-27T05:19:59.744Z,15.37
2022-09-27T05:22:40.296Z,15.24
2022-09-27T05:25:08.654Z,15.21
2022-09-27T05:27:36.002Z,15.44
2022-09-27T05:30:05.745Z,15.49
2022-09-27T05:32:49.291Z,15.46
2022-09-27T05:35:36.143Z,15.40
2022-09-27T05:38:04.095Z,15.32
2022-09-27T05:40:42.719Z,15.37
2022-09-27T05:43:11.974Z,15.39
2022-09-27T05:45:39.404Z,15.44
2022-09-27T05:48:08.307Z,15.40
2022-09-27T05:50:45.432Z,15.41
2022-09-27T05:53:13.447Z,15.41
2022-09-27T05:55:43.103Z,15.32
2022-09-27T05:58:11.486Z,15.38
2022-09-27T06:00:44.730Z,15.39
2022-09-27T06:03:33.525Z,15.35
2022-09-27T06:06:23.701Z,15.43
2022-09-27T06:08:55.330Z,15.48
2022-09-27T06:11:25.436Z,15.53
2022-09-27T06:13:52.947Z,15.64
2022-09-27T06:16:20.828Z,15.64
2022-09-27T06:18:48.240Z,15.96
2022-09-27T06:21:16.611Z,16.30
2022-09-27T06:23:54.202Z,16.42
2022-09-27T06:26:29.228Z,16.54
2022-09-27T06:29:22.291Z,17.15
2022-09-27T06:31:59.216Z,17.21
2022-09-27T06:34:46.814Z,16.81
2022-09-27T06:37:15.319Z,16.69
2022-09-27T06:39:42.842Z,16.40
2022-09-27T06:42:33.575Z,16.16
2022-09-27T06:45:20.083Z,16.08
2022-09-27T06:48:13.058Z,15.97
2022-09-27T06:50:50.514Z,16.03
2022-09-27T06:53:20.603Z,16.19
2022-09-27T06:55:48.051Z,16.00
2022-09-27T06:58:34.279Z,15.95
2022-09-27T07:01:27.987Z,16.07
2022-09-27T07:04:13.622Z,16.21
2022-09-27T07:06:57.840Z,16.57
2022-09-27T07:09:27.848Z,17.38
2022-09-27T07:11:55.889Z,17.92
2022-09-27T07:14:23.745Z,17.76
2022-09-27T07:16:53.649Z,17.61
2022-09-27T07:19:23.176Z,19.12
2022-09-27T07:21:52.602Z,19.67
2022-09-27T07:24:20.308Z,20.50
2022-09-27T07:26:48.866Z,22.21
2022-09-27T07:29:18.574Z,23.49
2022-09-27T07:31:46.153Z,24.00
2022-09-27T07:34:13.583Z,24.81
2022-09-27T07:36:40.996Z,24.79
2022-09-27T07:39:09.868Z,25.50
2022-09-27T07:41:39.239Z,25.67
2022-09-27T07:44:08.147Z,26.18
2022-09-27T07:46:45.017Z,26.41
2022-09-27T07:49:20.002Z,26.53
2022-09-27T07:52:19.758Z,26.73
2022-09-27T07:55:11.075Z,25.77
2022-09-27T07:58:09.004Z,23.39
2022-09-27T08:00:37.584Z,22.60
2022-09-27T08:03:10.965Z,22.74
2022-09-27T08:05:38.706Z,23.47
2022-09-27T08:08:06.194Z,24.69
2022-09-27T08:10:34.321Z,25.75
2022-09-27T08:13:05.787Z,26.98
2022-09-27T08:15:36.022Z,27.27
2022-09-27T08:18:03.568Z,27.11
2022-09-27T08:20:59.402Z,27.85
2022-09-27T08:23:36.930Z,27.98
2022-09-27T08:26:30.230Z,27.40
2022-09-27T08:29:12.751Z,27.68
2022-09-27T08:31:45.076Z,27.24
2022-09-27T08:34:12.557Z,26.53
2022-09-27T08:36:40.034Z,27.30
2022-09-27T08:39:07.396Z,28.17
2022-09-27T08:42:01.972Z,28.90
2022-09-27T08:44:43.017Z,28.60
2022-09-27T08:47:34.999Z,28.40
2022-09-27T08:50:22.907Z,27.68
2022-09-27T08:53:03.541Z,28.28
2022-09-27T08:55:37.394Z,27.74
2022-09-27T08:58:30.631Z,28.57
2022-09-27T09:01:03.344Z,29.37
2022-09-27T09:03:43.974Z,29.36
2022-09-27T09:06:14.386Z,29.40
2022-09-27T09:08:50.941Z,29.49
2022-09-27T09:11:55.119Z,29.20
2022-09-27T09:14:45.772Z,29.26
2022-09-27T09:17:17.662Z,28.06
2022-09-27T09:20:20.239Z,28.81
2022-09-27T09:23:30.654Z,27.53
2022-09-27T09:26:03.411Z,27.58
2022-09-27T09:28:46.132Z,27.91
2022-09-27T09:31:35.711Z,28.12
2022-09-27T09:34:36.846Z,27.98
2022-09-27T09:37:45.331Z,27.53
2022-09-27T09:40:46.224Z,28.48
2022-09-27T09:43:24.061Z,28.21
2022-09-27T09:46:02.328Z,27.47
2022-09-27T09:48:32.279Z,28.06
2022-09-27T09:51:02.335Z,27.94
2022-09-27T09:53:32.652Z,28.01
2022-09-27T09:56:09.492Z,26.94
2022-09-27T09:58:43.642Z,26.35
2022-09-27T10:01:27.979Z,24.19
2022-09-27T10:03:57.086Z,24.39
2022-09-27T10:06:26.546Z,24.98
2022-09-27T10:08:55.764Z,26.00
2022-09-27T10:11:39.643Z,25.97
2022-09-27T10:14:18.398Z,24.73
2022-09-27T10:16:49.135Z,24.84
2022-09-27T10:19:26.902Z,25.95
2022-09-27T10:22:02.719Z,26.40
2022-09-27T10:24:59.056Z,26.55
2022-09-27T10:27:48.956Z,26.21
2022-09-27T10:30:29.390Z,26.21
2022-09-27T10:33:04.362Z,24.88
2022-09-27T10:35:47.037Z,24.31
2022-09-27T10:38:34.805Z,23.29
2022-09-27T10:41:35.002Z,22.94
2022-09-27T10:44:15.546Z,23.06
2022-09-27T10:46:46.331Z,24.01
2022-09-27T10:49:41.408Z,24.84
2022-09-27T10:52:27.380Z,25.08
2022-09-27T10:55:01.693Z,25.53
2022-09-27T10:57:31.124Z,25.62
2022-09-27T11:00:07.494Z,25.40
2022-09-27T11:02:37.582Z,25.30
2022-09-27T11:05:30.947Z,25.67
2022-09-27T11:08:00.216Z,25.48
2022-09-27T11:11:24.361Z,25.74
2022-09-27T11:14:00.916Z,25.69
2022-09-27T11:17:07.610Z,25.25
2022-09-27T11:20:23.351Z,25.16
2022-09-27T11:23:21.804Z,25.23
2022-09-27T11:26:05.686Z,25.70
2022-09-27T11:28:42.102Z,25.77
2022-09-27T11:31:43.019Z,25.56
2022-09-27T11:34:31.720Z,25.70
2022-09-27T11:37:11.920Z,26.14
2022-09-27T11:39:48.666Z,25.43
2022-09-27T11:42:53.549Z,23.81
2022-09-27T11:46:15.302Z,23.41
2022-09-27T11:49:02.456Z,24.15
2022-09-27T11:52:14.676Z,24.78
2022-09-27T11:54:55.170Z,24.83
2022-09-27T11:57:31.952Z,25.41
2022-09-27T12:00:05.894Z,24.98
2022-09-27T12:03:15.055Z,25.22
2022-09-27T12:05:58.705Z,24.55
2022-09-27T12:08:36.404Z,24.06
2022-09-27T12:11:16.333Z,24.09
2022-09-27T12:13:48.914Z,23.31
2022-09-27T12:16:19.545Z,23.24
2022-09-27T12:18:51.602Z,23.89
2022-09-27T12:21:39.224Z,24.20
2022-09-27T12:24:09.090Z,24.46
2022-09-27T12:26:49.504Z,25.16
2022-09-27T12:29:31.625Z,25.49
2022-09-27T12:32:11.547Z,25.02
2022-09-27T12:34:56.352Z,25.08
2022-09-27T12:37:28.843Z,25.26
2022-09-27T12:40:02.327Z,25.94
2022-09-27T12:45:39.490Z,24.90
2022-09-27T12:48:10.686Z,24.67
2022-09-27T12:50:53.271Z,24.64
2022-09-27T12:53:30.318Z,24.87
2022-09-27T12:56:14.226Z,25.48
2022-09-27T12:59:17.591Z,25.15
2022-09-27T13:01:58.435Z,25.42
2022-09-27T13:04:34.055Z,25.60
2022-09-27T13:07:14.594Z,25.88
2022-09-27T13:10:26.291Z,25.22
2022-09-27T13:12:57.225Z,25.14
2022-09-27T13:15:31.563Z,25.09
2022-09-27T13:18:03.691Z,25.33
2022-09-27T13:20:42.584Z,25.25
2022-09-27T13:23:40.852Z,25.48
2022-09-27T13:26:32.959Z,25.65
2022-09-27T13:29:04.710Z,25.25
2022-09-27T13:31:54.536Z,25.60
2022-09-27T13:34:55.101Z,25.55
2022-09-27T13:37:36.802Z,25.42
2022-09-27T13:40:18.428Z,25.51
2022-09-27T13:43:17.764Z,25.78
2022-09-27T13:45:57.149Z,25.13
2022-09-27T13:48:32.563Z,24.85
2022-09-27T13:51:21.845Z,25.36
2022-09-27T13:54:00.974Z,25.57
2022-09-27T13:56:38.231Z,25.27
2022-09-27T13:59:12.117Z,25.14
2022-09-27T14:02:29.916Z,24.88
2022-09-27T14:05:01.151Z,25.22
2022-09-27T14:07:40.554Z,25.44
2022-09-27T14:10:16.222Z,25.00
2022-09-27T14:12:45.591Z,24.95
2022-09-27T14:15:22.709Z,24.95
2022-09-27T14:17:50.809Z,24.95
2022-09-27T14:20:34.338Z,24.89
2022-09-27T14:23:03.986Z,25.14
2022-09-27T14:25:44.422Z,24.76
2022-09-27T14:28:25.066Z,24.62
2022-09-27T14:31:18.371Z,24.06
2022-09-27T14:34:08.663Z,23.89
2022-09-27T14:37:01.415Z,23.83
2022-09-27T14:39:35.757Z,24.02
2022-09-27T14:42:20.928Z,24.07
2022-09-27T14:44:49.944Z,23.85
2022-09-27T14:47:28.226Z,23.69
2022-09-27T14:49:59.749Z,23.67
2022-09-27T14:52:35.387Z,23.82
2022-09-27T14:55:15.435Z,24.02
2022-09-27T14:57:49.380Z,23.81
2022-09-27T15:00:18.584Z,23.77
2022-09-27T15:02:46.295Z,23.73
2022-09-27T15:05:19.070Z,23.61
2022-09-27T15:07:47.746Z,23.36
2022-09-27T15:10:35.926Z,23.02
2022-09-27T15:13:05.211Z,22.94
2022-09-27T15:15:35.590Z,22.85
2022-09-27T15:18:04.049Z,22.59
2022-09-27T15:20:35.366Z,22.43
2022-09-27T15:23:07.547Z,22.42
2022-09-27T15:25:38.038Z,22.47
2022-09-27T15:28:11.247Z,22.37
2022-09-27T15:30:41.250Z,22.32
2022-09-27T15:33:21.261Z,22.38
2022-09-27T15:35:54.467Z,22.46
2022-09-27T15:38:47.456Z,22.34
2022-09-27T15:41:17.048Z,22.34
2022-09-27T15:43:47.959Z,22.28
2022-09-27T15:46:36.645Z,22.34
2022-09-27T15:49:26.781Z,22.27
2022-09-27T15:51:55.904Z,22.30
2022-09-27T15:54:27.109Z,22.30
2022-09-27T15:56:56.228Z,22.26
2022-09-27T15:59:28.654Z,22.32
2022-09-27T16:01:58.879Z,22.25
2022-09-27T16:04:27.559Z,22.48
2022-09-27T16:06:55.023Z,22.38
2022-09-27T16:09:22.553Z,22.17
2022-09-27T16:11:50.710Z,22.11
2022-09-27T16:14:19.683Z,22.01
2022-09-27T16:16:50.682Z,21.91
2022-09-27T16:19:18.465Z,21.82
2022-09-27T16:21:47.704Z,21.80
2022-09-27T16:24:17.145Z,21.76
2022-09-27T16:26:44.821Z,21.71
2022-09-27T16:29:14.558Z,21.61
2022-09-27T16:31:42.766Z,21.62
2022-09-27T16:34:11.776Z,21.56
2022-09-27T16:36:39.674Z,21.55
2022-09-27T16:39:10.551Z,21.50
2022-09-27T16:41:38.128Z,21.41
2022-09-27T16:44:10.876Z,21.35
2022-09-27T16:46:41.838Z,21.24
2022-09-27T16:49:29.521Z,21.13
2022-09-27T16:52:00.190Z,21.09
2022-09-27T16:54:30.922Z,21.01
2022-09-27T16:56:59.364Z,20.92
2022-09-27T16:59:27.199Z,20.94
2022-09-27T17:01:57.452Z,20.93
2022-09-27T17:04:26.027Z,20.88
2022-09-27T17:06:54.052Z,20.84
2022-09-27T17:09:21.836Z,20.80
2022-09-27T17:11:49.431Z,20.78
2022-09-27T17:14:17.662Z,20.73
2022-09-27T17:16:47.033Z,20.62
2022-09-27T17:19:15.947Z,20.54
2022-09-27T17:21:43.569Z,20.49
2022-09-27T17:24:13.831Z,20.44
2022-09-27T17:26:41.496Z,20.40
2022-09-27T17:29:11.217Z,20.39
2022-09-27T17:31:40.400Z,20.43
2022-09-27T17:34:12.240Z,20.40
2022-09-27T17:36:41.673Z,20.35
2022-09-27T17:39:13.981Z,20.32
2022-09-27T17:41:42.325Z,20.20
2022-09-27T17:44:16.040Z,20.15
2022-09-27T17:47:20.731Z,20.05
2022-09-27T17:50:06.675Z,20.06
2022-09-27T17:52:34.419Z,19.96
2022-09-27T17:55:01.882Z,19.89
2022-09-27T17:57:29.178Z,19.88
2022-09-27T17:59:57.967Z,20.03
2022-09-27T18:02:26.498Z,20.07
2022-09-27T18:04:53.799Z,20.23
2022-09-27T18:07:23.997Z,19.98
2022-09-27T18:09:51.642Z,19.74
2022-09-27T18:12:18.893Z,19.63
2022-09-27T18:14:46.171Z,19.62
2022-09-27T18:17:14.040Z,19.63
2022-09-27T18:19:41.289Z,19.40
2022-09-27T18:22:08.558Z,18.94
2022-09-27T18:24:35.877Z,18.64
2022-09-27T18:27:04.185Z,18.54
2022-09-27T18:29:31.486Z,18.49
2022-09-27T18:31:58.748Z,18.47
2022-09-27T18:34:26.018Z,18.41
2022-09-27T18:36:53.250Z,18.61
2022-09-27T18:39:22.864Z,18.78
2022-09-27T18:41:50.516Z,18.64
2022-09-27T18:44:18.486Z,18.91
2022-09-27T18:46:46.114Z,18.99
2022-09-27T18:49:14.799Z,18.84
2022-09-27T18:51:47.387Z,18.67
2022-09-27T18:54:19.140Z,18.77
2022-09-27T18:56:48.350Z,18.89
2022-09-27T18:59:17.176Z,18.87
2022-09-27T19:01:45.852Z,19.05
2022-09-27T19:04:19.233Z,18.87
2022-09-27T19:06:51.160Z,18.69
2022-09-27T19:09:18.869Z,18.67
2022-09-27T19:11:46.363Z,18.18
2022-09-27T19:14:19.133Z,18.47
2022-09-27T19:16:48.048Z,18.42
2022-09-27T19:19:16.791Z,18.41
2022-09-27T19:21:44.226Z,18.30
2022-09-27T19:24:12.198Z,18.30
2022-09-27T19:26:39.527Z,18.32
2022-09-27T19:29:06.755Z,18.43
2022-09-27T19:31:35.833Z,18.54
2022-09-27T19:34:03.656Z,18.58
2022-09-27T19:36:31.419Z,18.63
2022-09-27T19:38:59.882Z,18.57
2022-09-27T19:41:27.402Z,18.34
2022-09-27T19:43:56.074Z,18.42
2022-09-27T19:46:27.019Z,18.33
2022-09-27T19:48:56.071Z,18.21
2022-09-27T19:51:25.771Z,18.32
2022-09-27T19:53:54.288Z,18.37
2022-09-27T19:56:22.361Z,18.20
2022-09-27T19:58:50.162Z,18.15
2022-09-27T20:01:20.770Z,18.20
2022-09-27T20:03:49.952Z,18.31
2022-09-27T20:06:19.594Z,18.30
2022-09-27T20:08:50.302Z,18.03
2022-09-27T20:11:22.845Z,18.12
2022-09-27T20:13:52.862Z,18.07
2022-09-27T20:16:24.507Z,17.81
2022-09-27T20:18:57.780Z,17.81
2022-09-27T20:21:32.428Z,18.03
2022-09-27T20:24:01.902Z,17.98
2022-09-27T20:26:30.889Z,17.97
2022-09-27T20:29:00.505Z,17.74
2022-09-27T20:31:33.566Z,17.65
2022-09-27T20:34:01.276Z,18.06
2022-09-27T20:36:31.745Z,18.03
2022-09-27T20:39:03.035Z,17.88
2022-09-27T20:41:33.138Z,18.00
2022-09-27T20:44:06.329Z,17.85
2022-09-27T20:46:35.374Z,17.65
2022-09-27T20:49:06.171Z,17.60
2022-09-27T20:51:35.340Z,17.72
2022-09-27T20:54:04.134Z,17.90
2022-09-27T20:56:34.103Z,17.72
2022-09-27T20:59:12.727Z,17.79
2022-09-27T21:01:48.185Z,17.84
2022-09-27T21:04:17.694Z,17.84
2022-09-27T21:06:45.452Z,17.78
2022-09-27T21:09:20.332Z,17.76
2022-09-27T21:11:49.222Z,17.72
2022-09-27T21:14:16.738Z,17.71
2022-09-27T21:16:44.212Z,17.63
2022-09-27T21:19:29.925Z,17.73
2022-09-27T21:21:57.156Z,17.62
2022-09-27T21:24:24.440Z,17.61
2022-09-27T21:26:53.271Z,17.64
2022-09-27T21:29:21.317Z,17.57
2022-09-27T21:31:48.586Z,17.65
2022-09-27T21:34:16.420Z,17.48
2022-09-27T21:36:43.712Z,17.35
2022-09-27T21:39:11.283Z,17.26
2022-09-27T21:41:39.252Z,17.31
2022-09-27T21:44:07.999Z,17.20
2022-09-27T21:46:39.917Z,17.26
2022-09-27T21:49:09.709Z,17.19
2022-09-27T21:51:39.094Z,16.94
2022-09-27T21:54:10.065Z,16.95
2022-09-27T21:56:38.744Z,16.98
2022-09-27T21:59:07.699Z,17.08
2022-09-27T22:01:35.785Z,16.94
2022-09-27T22:04:04.977Z,16.97
2022-09-27T22:06:36.140Z,16.85
2022-09-27T22:09:06.089Z,16.81
2022-09-27T22:11:37.993Z,16.66
2022-09-27T22:14:09.468Z,16.59
2022-09-27T22:16:37.513Z,16.53
2022-09-27T22:19:04.988Z,16.62
2022-09-27T22:21:35.535Z,16.71
2022-09-27T22:24:08.618Z,16.59
2022-09-27T22:26:41.362Z,16.49
2022-09-27T22:29:09.199Z,16.36
2022-09-27T22:31:37.415Z,16.31
2022-09-27T22:34:07.599Z,16.46
2022-09-27T22:36:35.086Z,16.22
2022-09-27T22:39:02.449Z,16.27
2022-09-27T22:41:30.521Z,16.29
2022-09-27T22:43:58.104Z,16.21
2022-09-27T22:46:25.543Z,16.13
2022-09-27T22:48:53.111Z,16.03
2022-09-27T22:51:20.389Z,16.00
2022-09-27T22:53:50.574Z,16.14
2022-09-27T22:56:19.912Z,16.16
2022-09-27T22:58:48.504Z,16.02
2022-09-27T23:01:20.304Z,15.94
2022-09-27T23:03:49.530Z,15.99
2022-09-27T23:06:18.640Z,16.04
2022-09-27T23:08:47.388Z,16.03
2022-09-27T23:11:20.073Z,16.08
2022-09-27T23:13:48.394Z,15.77
2022-09-27T23:16:18.477Z,15.45
2022-09-27T23:18:47.617Z,15.37
2022-09-27T23:21:16.106Z,15.36
2022-09-27T23:23:45.685Z,15.20
2022-09-27T23:26:15.839Z,15.14
2022-09-27T23:28:43.296Z,15.22
2022-09-27T23:31:16.685Z,15.17
2022-09-27T23:33:48.425Z,15.10
2022-09-27T23:36:18.339Z,15.11
2022-09-27T23:38:47.835Z,15.03
2022-09-27T23:41:16.711Z,15.07
2022-09-27T23:43:44.624Z,15.02
2022-09-27T23:46:12.770Z,14.97
2022-09-27T23:48:40.421Z,14.92
2022-09-27T23:51:10.213Z,14.84
2022-09-27T23:53:39.026Z,14.88
2022-09-27T23:56:10.369Z,14.92
2022-09-27T23:58:42.491Z,14.99
